sensor_id;sensor_type;location;lat;lon;timestamp;P1;durP1;ratioP1;P2;durP2;ratioP2
25365;SDS011;13315;48.274;-1.900;2023-12-22T00:02:16;4.72;;;2.65;;
25365;SDS011;13315;48.274;-1.900;2023-12-22T00:04:42;2.85;;;2.75;;
25365;SDS011;13315;48.274;-1.900;2023-12-22T00:07:08;2.58;;;2.47;;
25365;SDS011;13315;48.274;-1.900;2023-12-22T00:09:34;7.88;;;3.45;;
25365;SDS011;13315;48.274;-1.900;2023-12-22T00:12:00;3.42;;;3.22;;
25365;SDS011;13315;48.274;-1.900;2023-12-22T00:14:27;3.40;;;3.15;;
25365;SDS011;13315;48.274;-1.900;2023-12-22T00:16:53;3.85;;;3.55;;
25365;SDS011;13315;48.274;-1.900;2023-12-22T00:19:19;2.83;;;2.60;;
25365;SDS011;13315;48.274;-1.900;2023-12-22T00:21:45;10.25;;;2.75;;
25365;SDS011;13315;48.274;-1.900;2023-12-22T00:24:11;4.63;;;3.10;;
25365;SDS011;13315;48.274;-1.900;2023-12-22T00:26:37;5.10;;;2.50;;
25365;SDS011;13315;48.274;-1.900;2023-12-22T00:29:03;4.75;;;2.13;;
25365;SDS011;13315;48.274;-1.900;2023-12-22T00:31:29;3.25;;;3.05;;
25365;SDS011;13315;48.274;-1.900;2023-12-22T00:33:55;3.38;;;2.25;;
25365;SDS011;13315;48.274;-1.900;2023-12-22T00:36:21;3.95;;;2.40;;
25365;SDS011;13315;48.274;-1.900;2023-12-22T00:38:49;2.97;;;2.55;;
25365;SDS011;13315;48.274;-1.900;2023-12-22T00:41:15;2.88;;;2.67;;
25365;SDS011;13315;48.274;-1.900;2023-12-22T00:43:41;12.68;;;2.78;;
25365;SDS011;13315;48.274;-1.900;2023-12-22T00:46:08;2.65;;;2.53;;
25365;SDS011;13315;48.274;-1.900;2023-12-22T00:48:34;7.38;;;3.33;;
25365;SDS011;13315;48.274;-1.900;2023-12-22T00:51:00;4.00;;;3.17;;
25365;SDS011;13315;48.274;-1.900;2023-12-22T00:53:26;6.65;;;2.80;;
25365;SDS011;13315;48.274;-1.900;2023-12-22T00:55:52;2.30;;;2.20;;
25365;SDS011;13315;48.274;-1.900;2023-12-22T00:58:18;3.72;;;3.00;;
25365;SDS011;13315;48.274;-1.900;2023-12-22T01:00:44;2.00;;;1.90;;
25365;SDS011;13315;48.274;-1.900;2023-12-22T01:03:10;3.33;;;1.90;;
25365;SDS011;13315;48.274;-1.900;2023-12-22T01:05:37;2.50;;;2.40;;
25365;SDS011;13315;48.274;-1.900;2023-12-22T01:08:03;2.22;;;2.10;;
25365;SDS011;13315;48.274;-1.900;2023-12-22T01:10:29;14.38;;;3.72;;
25365;SDS011;13315;48.274;-1.900;2023-12-22T01:12:55;27.70;;;2.97;;
25365;SDS011;13315;48.274;-1.900;2023-12-22T01:15:21;2.90;;;1.65;;
25365;SDS011;13315;48.274;-1.900;2023-12-22T01:17:47;2.83;;;1.77;;
25365;SDS011;13315;48.274;-1.900;2023-12-22T01:20:13;3.70;;;2.60;;
25365;SDS011;13315;48.274;-1.900;2023-12-22T01:22:40;4.38;;;3.42;;
25365;SDS011;13315;48.274;-1.900;2023-12-22T01:25:06;12.38;;;2.60;;
25365;SDS011;13315;48.274;-1.900;2023-12-22T01:27:32;6.38;;;2.42;;
25365;SDS011;13315;48.274;-1.900;2023-12-22T01:29:58;3.28;;;2.85;;
25365;SDS011;13315;48.274;-1.900;2023-12-22T01:32:24;21.23;;;2.72;;
25365;SDS011;13315;48.274;-1.900;2023-12-22T01:34:50;4.00;;;2.10;;
25365;SDS011;13315;48.274;-1.900;2023-12-22T01:37:16;8.93;;;3.05;;
25365;SDS011;13315;48.274;-1.900;2023-12-22T01:39:42;5.90;;;2.30;;
25365;SDS011;13315;48.274;-1.900;2023-12-22T01:42:08;13.88;;;3.20;;
25365;SDS011;13315;48.274;-1.900;2023-12-22T01:44:34;2.20;;;2.10;;
25365;SDS011;13315;48.274;-1.900;2023-12-22T01:47:00;2.47;;;1.98;;
25365;SDS011;13315;48.274;-1.900;2023-12-22T01:49:27;7.72;;;2.63;;
25365;SDS011;13315;48.274;-1.900;2023-12-22T01:51:54;5.95;;;3.15;;
25365;SDS011;13315;48.274;-1.900;2023-12-22T01:54:20;6.07;;;3.60;;
25365;SDS011;13315;48.274;-1.900;2023-12-22T01:56:46;3.00;;;2.80;;
25365;SDS011;13315;48.274;-1.900;2023-12-22T01:59:12;3.95;;;2.60;;
25365;SDS011;13315;48.274;-1.900;2023-12-22T02:01:39;2.47;;;2.38;;
25365;SDS011;13315;48.274;-1.900;2023-12-22T02:04:05;2.92;;;2.58;;
25365;SDS011;13315;48.274;-1.900;2023-12-22T02:06:31;13.95;;;3.95;;
25365;SDS011;13315;48.274;-1.900;2023-12-22T02:11:26;2.25;;;2.10;;
25365;SDS011;13315;48.274;-1.900;2023-12-22T02:13:52;6.20;;;2.08;;
25365;SDS011;13315;48.274;-1.900;2023-12-22T02:16:20;1.63;;;1.63;;
25365;SDS011;13315;48.274;-1.900;2023-12-22T02:18:47;4.30;;;2.58;;
25365;SDS011;13315;48.274;-1.900;2023-12-22T02:21:13;3.70;;;2.25;;
25365;SDS011;13315;48.274;-1.900;2023-12-22T02:23:39;2.63;;;2.50;;
25365;SDS011;13315;48.274;-1.900;2023-12-22T02:26:48;3.28;;;3.08;;
25365;SDS011;13315;48.274;-1.900;2023-12-22T02:28:55;4.90;;;3.00;;
25365;SDS011;13315;48.274;-1.900;2023-12-22T02:31:27;3.50;;;3.10;;
25365;SDS011;13315;48.274;-1.900;2023-12-22T02:33:59;2.67;;;2.13;;
25365;SDS011;13315;48.274;-1.900;2023-12-22T02:36:25;3.25;;;3.05;;
25365;SDS011;13315;48.274;-1.900;2023-12-22T02:38:52;2.28;;;2.17;;
25365;SDS011;13315;48.274;-1.900;2023-12-22T02:41:19;10.70;;;3.58;;
25365;SDS011;13315;48.274;-1.900;2023-12-22T02:43:45;3.25;;;3.10;;
25365;SDS011;13315;48.274;-1.900;2023-12-22T02:46:13;3.83;;;2.97;;
25365;SDS011;13315;48.274;-1.900;2023-12-22T02:48:40;8.57;;;5.38;;
25365;SDS011;13315;48.274;-1.900;2023-12-22T02:51:06;2.25;;;2.15;;
25365;SDS011;13315;48.274;-1.900;2023-12-22T02:53:32;2.40;;;2.30;;
25365;SDS011;13315;48.274;-1.900;2023-12-22T02:55:58;5.40;;;2.95;;
25365;SDS011;13315;48.274;-1.900;2023-12-22T02:58:24;3.72;;;3.42;;
25365;SDS011;13315;48.274;-1.900;2023-12-22T03:00:50;3.17;;;2.97;;
25365;SDS011;13315;48.274;-1.900;2023-12-22T03:03:16;2.80;;;2.60;;
25365;SDS011;13315;48.274;-1.900;2023-12-22T03:05:42;2.97;;;2.78;;
25365;SDS011;13315;48.274;-1.900;2023-12-22T03:08:08;5.53;;;3.13;;
25365;SDS011;13315;48.274;-1.900;2023-12-22T03:10:34;2.10;;;2.00;;
25365;SDS011;13315;48.274;-1.900;2023-12-22T03:13:00;2.38;;;2.28;;
25365;SDS011;13315;48.274;-1.900;2023-12-22T03:15:26;3.15;;;2.85;;
25365;SDS011;13315;48.274;-1.900;2023-12-22T03:17:52;2.00;;;1.90;;
25365;SDS011;13315;48.274;-1.900;2023-12-22T03:20:18;2.90;;;2.70;;
25365;SDS011;13315;48.274;-1.900;2023-12-22T03:22:44;2.10;;;2.00;;
25365;SDS011;13315;48.274;-1.900;2023-12-22T03:25:10;2.55;;;2.30;;
25365;SDS011;13315;48.274;-1.900;2023-12-22T03:27:36;1.88;;;1.77;;
25365;SDS011;13315;48.274;-1.900;2023-12-22T03:30:03;2.10;;;2.00;;
25365;SDS011;13315;48.274;-1.900;2023-12-22T03:32:29;1.70;;;1.70;;
25365;SDS011;13315;48.274;-1.900;2023-12-22T03:34:55;3.10;;;1.90;;
25365;SDS011;13315;48.274;-1.900;2023-12-22T03:37:21;2.35;;;2.03;;
25365;SDS011;13315;48.274;-1.900;2023-12-22T03:39:47;2.88;;;2.78;;
25365;SDS011;13315;48.274;-1.900;2023-12-22T03:42:13;2.80;;;2.25;;
25365;SDS011;13315;48.274;-1.900;2023-12-22T03:44:39;2.33;;;2.22;;
25365;SDS011;13315;48.274;-1.900;2023-12-22T03:47:05;2.95;;;2.80;;
25365;SDS011;13315;48.274;-1.900;2023-12-22T03:49:32;3.80;;;3.60;;
25365;SDS011;13315;48.274;-1.900;2023-12-22T03:51:58;3.30;;;3.10;;
25365;SDS011;13315;48.274;-1.900;2023-12-22T03:54:24;2.67;;;2.58;;
25365;SDS011;13315;48.274;-1.900;2023-12-22T03:56:50;2.95;;;2.85;;
25365;SDS011;13315;48.274;-1.900;2023-12-22T03:59:16;1.90;;;1.90;;
25365;SDS011;13315;48.274;-1.900;2023-12-22T04:01:43;3.05;;;1.65;;
25365;SDS011;13315;48.274;-1.900;2023-12-22T04:04:09;1.58;;;1.48;;
25365;SDS011;13315;48.274;-1.900;2023-12-22T04:06:39;1.60;;;1.60;;
25365;SDS011;13315;48.274;-1.900;2023-12-22T04:09:05;1.90;;;1.80;;
25365;SDS011;13315;48.274;-1.900;2023-12-22T04:11:31;2.40;;;2.30;;
25365;SDS011;13315;48.274;-1.900;2023-12-22T04:13:59;8.73;;;2.58;;
25365;SDS011;13315;48.274;-1.900;2023-12-22T04:16:25;2.15;;;2.03;;
25365;SDS011;13315;48.274;-1.900;2023-12-22T04:18:51;5.57;;;2.13;;
25365;SDS011;13315;48.274;-1.900;2023-12-22T04:21:17;1.80;;;1.80;;
25365;SDS011;13315;48.274;-1.900;2023-12-22T04:23:44;2.72;;;2.63;;
25365;SDS011;13315;48.274;-1.900;2023-12-22T04:26:10;2.40;;;2.30;;
25365;SDS011;13315;48.274;-1.900;2023-12-22T04:28:36;2.30;;;2.15;;
25365;SDS011;13315;48.274;-1.900;2023-12-22T04:31:02;2.92;;;2.72;;
25365;SDS011;13315;48.274;-1.900;2023-12-22T04:33:28;2.30;;;2.20;;
25365;SDS011;13315;48.274;-1.900;2023-12-22T04:35:54;2.60;;;2.50;;
25365;SDS011;13315;48.274;-1.900;2023-12-22T04:38:20;2.30;;;2.20;;
25365;SDS011;13315;48.274;-1.900;2023-12-22T04:40:46;2.03;;;1.92;;
25365;SDS011;13315;48.274;-1.900;2023-12-22T04:43:12;1.92;;;1.92;;
25365;SDS011;13315;48.274;-1.900;2023-12-22T04:45:38;2.63;;;2.53;;
25365;SDS011;13315;48.274;-1.900;2023-12-22T04:48:04;3.03;;;2.92;;
25365;SDS011;13315;48.274;-1.900;2023-12-22T04:50:31;2.60;;;2.50;;
25365;SDS011;13315;48.274;-1.900;2023-12-22T04:52:57;3.10;;;3.00;;
25365;SDS011;13315;48.274;-1.900;2023-12-22T04:55:23;3.60;;;3.40;;
25365;SDS011;13315;48.274;-1.900;2023-12-22T04:57:49;3.85;;;3.08;;
25365;SDS011;13315;48.274;-1.900;2023-12-22T05:00:15;3.53;;;3.42;;
25365;SDS011;13315;48.274;-1.900;2023-12-22T05:02:41;3.78;;;3.58;;
25365;SDS011;13315;48.274;-1.900;2023-12-22T05:05:07;2.40;;;2.30;;
25365;SDS011;13315;48.274;-1.900;2023-12-22T05:07:33;2.85;;;2.75;;
25365;SDS011;13315;48.274;-1.900;2023-12-22T05:10:00;5.70;;;3.00;;
25365;SDS011;13315;48.274;-1.900;2023-12-22T05:12:26;4.40;;;2.92;;
25365;SDS011;13315;48.274;-1.900;2023-12-22T05:14:52;2.60;;;2.50;;
25365;SDS011;13315;48.274;-1.900;2023-12-22T05:17:19;2.90;;;2.80;;
25365;SDS011;13315;48.274;-1.900;2023-12-22T05:19:45;3.90;;;3.70;;
25365;SDS011;13315;48.274;-1.900;2023-12-22T05:22:12;3.13;;;3.03;;
25365;SDS011;13315;48.274;-1.900;2023-12-22T05:24:38;3.78;;;3.67;;
25365;SDS011;13315;48.274;-1.900;2023-12-22T05:27:04;3.20;;;3.10;;
25365;SDS011;13315;48.274;-1.900;2023-12-22T05:29:30;2.80;;;2.70;;
25365;SDS011;13315;48.274;-1.900;2023-12-22T05:31:56;2.40;;;2.30;;
25365;SDS011;13315;48.274;-1.900;2023-12-22T05:34:22;9.50;;;2.78;;
25365;SDS011;13315;48.274;-1.900;2023-12-22T05:36:48;3.20;;;3.10;;
25365;SDS011;13315;48.274;-1.900;2023-12-22T05:39:14;3.65;;;3.35;;
25365;SDS011;13315;48.274;-1.900;2023-12-22T05:41:40;3.50;;;3.35;;
25365;SDS011;13315;48.274;-1.900;2023-12-22T05:44:06;4.65;;;3.33;;
25365;SDS011;13315;48.274;-1.900;2023-12-22T05:46:36;2.72;;;2.63;;
25365;SDS011;13315;48.274;-1.900;2023-12-22T05:49:05;3.25;;;2.85;;
25365;SDS011;13315;48.274;-1.900;2023-12-22T05:51:41;2.97;;;2.80;;
25365;SDS011;13315;48.274;-1.900;2023-12-22T05:54:07;6.47;;;5.97;;
25365;SDS011;13315;48.274;-1.900;2023-12-22T05:56:34;6.07;;;5.78;;
25365;SDS011;13315;48.274;-1.900;2023-12-22T05:59:00;6.15;;;5.85;;
25365;SDS011;13315;48.274;-1.900;2023-12-22T06:01:26;6.65;;;6.15;;
25365;SDS011;13315;48.274;-1.900;2023-12-22T06:03:52;7.65;;;7.32;;
25365;SDS011;13315;48.274;-1.900;2023-12-22T06:06:19;8.00;;;7.60;;
25365;SDS011;13315;48.274;-1.900;2023-12-22T06:08:45;8.63;;;7.53;;
25365;SDS011;13315;48.274;-1.900;2023-12-22T06:11:11;9.48;;;6.30;;
25365;SDS011;13315;48.274;-1.900;2023-12-22T06:13:37;6.95;;;6.45;;
25365;SDS011;13315;48.274;-1.900;2023-12-22T06:16:04;8.63;;;8.23;;
25365;SDS011;13315;48.274;-1.900;2023-12-22T06:18:30;8.82;;;8.27;;
25365;SDS011;13315;48.274;-1.900;2023-12-22T06:20:56;8.85;;;8.40;;
25365;SDS011;13315;48.274;-1.900;2023-12-22T06:23:22;8.32;;;6.88;;
25365;SDS011;13315;48.274;-1.900;2023-12-22T06:25:48;6.32;;;6.03;;
25365;SDS011;13315;48.274;-1.900;2023-12-22T06:28:14;6.10;;;5.80;;
25365;SDS011;13315;48.274;-1.900;2023-12-22T06:30:42;8.90;;;7.75;;
25365;SDS011;13315;48.274;-1.900;2023-12-22T06:33:09;8.27;;;7.88;;
25365;SDS011;13315;48.274;-1.900;2023-12-22T06:35:35;6.00;;;5.60;;
25365;SDS011;13315;48.274;-1.900;2023-12-22T06:38:02;7.50;;;7.15;;
25365;SDS011;13315;48.274;-1.900;2023-12-22T06:40:31;6.13;;;5.05;;
25365;SDS011;13315;48.274;-1.900;2023-12-22T06:42:58;4.40;;;4.20;;
25365;SDS011;13315;48.274;-1.900;2023-12-22T06:45:24;5.13;;;4.82;;
25365;SDS011;13315;48.274;-1.900;2023-12-22T06:47:50;7.20;;;6.70;;
25365;SDS011;13315;48.274;-1.900;2023-12-22T06:50:16;5.57;;;5.22;;
25365;SDS011;13315;48.274;-1.900;2023-12-22T06:52:42;8.57;;;8.07;;
25365;SDS011;13315;48.274;-1.900;2023-12-22T06:55:08;7.63;;;6.40;;
25365;SDS011;13315;48.274;-1.900;2023-12-22T06:57:34;4.65;;;4.38;;
25365;SDS011;13315;48.274;-1.900;2023-12-22T07:00:00;4.70;;;4.50;;
25365;SDS011;13315;48.274;-1.900;2023-12-22T07:02:27;4.85;;;4.65;;
25365;SDS011;13315;48.274;-1.900;2023-12-22T07:05:03;17.05;;;3.63;;
25365;SDS011;13315;48.274;-1.900;2023-12-22T07:07:50;4.25;;;3.85;;
25365;SDS011;13315;48.274;-1.900;2023-12-22T07:10:16;3.67;;;3.53;;
25365;SDS011;13315;48.274;-1.900;2023-12-22T07:12:42;4.90;;;4.68;;
25365;SDS011;13315;48.274;-1.900;2023-12-22T07:15:08;3.80;;;3.60;;
25365;SDS011;13315;48.274;-1.900;2023-12-22T07:17:35;3.60;;;3.40;;
25365;SDS011;13315;48.274;-1.900;2023-12-22T07:20:02;2.55;;;2.42;;
25365;SDS011;13315;48.274;-1.900;2023-12-22T07:22:28;4.53;;;4.32;;
25365;SDS011;13315;48.274;-1.900;2023-12-22T07:24:54;6.93;;;6.05;;
25365;SDS011;13315;48.274;-1.900;2023-12-22T07:27:21;5.85;;;5.55;;
25365;SDS011;13315;48.274;-1.900;2023-12-22T07:29:48;5.78;;;5.30;;
25365;SDS011;13315;48.274;-1.900;2023-12-22T07:32:14;7.18;;;3.53;;
25365;SDS011;13315;48.274;-1.900;2023-12-22T07:34:41;4.00;;;3.80;;
25365;SDS011;13315;48.274;-1.900;2023-12-22T07:37:07;5.13;;;4.32;;
25365;SDS011;13315;48.274;-1.900;2023-12-22T07:39:33;2.95;;;2.80;;
25365;SDS011;13315;48.274;-1.900;2023-12-22T07:41:59;9.18;;;4.60;;
25365;SDS011;13315;48.274;-1.900;2023-12-22T07:44:25;8.88;;;5.18;;
25365;SDS011;13315;48.274;-1.900;2023-12-22T07:46:57;16.08;;;3.70;;
25365;SDS011;13315;48.274;-1.900;2023-12-22T07:49:24;3.15;;;2.95;;
25365;SDS011;13315;48.274;-1.900;2023-12-22T07:51:51;3.60;;;3.38;;
25365;SDS011;13315;48.274;-1.900;2023-12-22T07:54:17;11.20;;;4.28;;
25365;SDS011;13315;48.274;-1.900;2023-12-22T07:56:43;2.90;;;2.70;;
25365;SDS011;13315;48.274;-1.900;2023-12-22T07:59:09;4.82;;;2.83;;
25365;SDS011;13315;48.274;-1.900;2023-12-22T08:01:36;3.50;;;2.83;;
25365;SDS011;13315;48.274;-1.900;2023-12-22T08:04:02;4.22;;;3.92;;
25365;SDS011;13315;48.274;-1.900;2023-12-22T08:06:28;4.95;;;4.70;;
25365;SDS011;13315;48.274;-1.900;2023-12-22T08:08:54;11.65;;;6.20;;
25365;SDS011;13315;48.274;-1.900;2023-12-22T08:11:20;4.30;;;3.95;;
25365;SDS011;13315;48.274;-1.900;2023-12-22T08:16:15;3.53;;;2.95;;
25365;SDS011;13315;48.274;-1.900;2023-12-22T08:18:41;5.50;;;5.07;;
25365;SDS011;13315;48.274;-1.900;2023-12-22T08:21:07;6.95;;;2.95;;
25365;SDS011;13315;48.274;-1.900;2023-12-22T08:23:33;3.67;;;3.40;;
25365;SDS011;13315;48.274;-1.900;2023-12-22T08:25:59;3.67;;;3.40;;
25365;SDS011;13315;48.274;-1.900;2023-12-22T08:28:25;5.38;;;3.03;;
25365;SDS011;13315;48.274;-1.900;2023-12-22T08:30:51;20.60;;;3.75;;
25365;SDS011;13315;48.274;-1.900;2023-12-22T08:33:17;3.97;;;3.13;;
25365;SDS011;13315;48.274;-1.900;2023-12-22T08:35:44;7.80;;;4.72;;
25365;SDS011;13315;48.274;-1.900;2023-12-22T08:38:10;3.50;;;3.17;;
25365;SDS011;13315;48.274;-1.900;2023-12-22T08:40:38;9.05;;;4.50;;
25365;SDS011;13315;48.274;-1.900;2023-12-22T08:43:04;3.17;;;2.97;;
25365;SDS011;13315;48.274;-1.900;2023-12-22T08:45:31;2.83;;;2.63;;
25365;SDS011;13315;48.274;-1.900;2023-12-22T08:47:57;8.27;;;2.95;;
25365;SDS011;13315;48.274;-1.900;2023-12-22T08:50:24;8.38;;;4.00;;
25365;SDS011;13315;48.274;-1.900;2023-12-22T08:52:50;8.23;;;2.70;;
25365;SDS011;13315;48.274;-1.900;2023-12-22T08:55:16;5.60;;;3.60;;
25365;SDS011;13315;48.274;-1.900;2023-12-22T08:57:42;4.82;;;4.25;;
25365;SDS011;13315;48.274;-1.900;2023-12-22T09:00:08;16.40;;;3.67;;
25365;SDS011;13315;48.274;-1.900;2023-12-22T09:02:35;5.22;;;3.05;;
25365;SDS011;13315;48.274;-1.900;2023-12-22T09:05:01;3.70;;;3.35;;
25365;SDS011;13315;48.274;-1.900;2023-12-22T09:07:27;4.70;;;4.40;;
25365;SDS011;13315;48.274;-1.900;2023-12-22T09:09:53;25.90;;;4.05;;
25365;SDS011;13315;48.274;-1.900;2023-12-22T09:12:19;3.72;;;3.50;;
25365;SDS011;13315;48.274;-1.900;2023-12-22T09:14:45;10.73;;;3.42;;
25365;SDS011;13315;48.274;-1.900;2023-12-22T09:17:12;13.55;;;4.32;;
25365;SDS011;13315;48.274;-1.900;2023-12-22T09:19:38;12.32;;;4.93;;
25365;SDS011;13315;48.274;-1.900;2023-12-22T09:22:04;12.15;;;5.00;;
25365;SDS011;13315;48.274;-1.900;2023-12-22T09:24:30;5.55;;;3.83;;
25365;SDS011;13315;48.274;-1.900;2023-12-22T09:26:56;15.45;;;4.75;;
25365;SDS011;13315;48.274;-1.900;2023-12-22T09:29:27;3.72;;;3.53;;
25365;SDS011;13315;48.274;-1.900;2023-12-22T09:31:54;3.85;;;3.28;;
25365;SDS011;13315;48.274;-1.900;2023-12-22T09:34:20;4.88;;;4.45;;
25365;SDS011;13315;48.274;-1.900;2023-12-22T09:36:46;45.00;;;40.85;;
25365;SDS011;13315;48.274;-1.900;2023-12-22T09:39:12;38.85;;;35.65;;
25365;SDS011;13315;48.274;-1.900;2023-12-22T09:41:42;33.17;;;29.67;;
25365;SDS011;13315;48.274;-1.900;2023-12-22T09:44:09;31.38;;;28.23;;
25365;SDS011;13315;48.274;-1.900;2023-12-22T09:46:36;4.88;;;4.05;;
25365;SDS011;13315;48.274;-1.900;2023-12-22T09:49:02;7.03;;;4.32;;
25365;SDS011;13315;48.274;-1.900;2023-12-22T09:51:29;9.40;;;4.40;;
25365;SDS011;13315;48.274;-1.900;2023-12-22T09:53:55;5.50;;;4.95;;
25365;SDS011;13315;48.274;-1.900;2023-12-22T09:56:23;6.15;;;5.65;;
25365;SDS011;13315;48.274;-1.900;2023-12-22T09:58:50;12.77;;;4.93;;
25365;SDS011;13315;48.274;-1.900;2023-12-22T10:01:17;7.78;;;4.15;;
25365;SDS011;13315;48.274;-1.900;2023-12-22T10:03:47;9.60;;;3.20;;
25365;SDS011;13315;48.274;-1.900;2023-12-22T10:06:13;3.75;;;3.45;;
25365;SDS011;13315;48.274;-1.900;2023-12-22T10:08:40;2.92;;;2.65;;
25365;SDS011;13315;48.274;-1.900;2023-12-22T10:11:07;17.75;;;4.63;;
25365;SDS011;13315;48.274;-1.900;2023-12-22T10:13:36;2.63;;;2.50;;
25365;SDS011;13315;48.274;-1.900;2023-12-22T10:16:02;10.98;;;3.50;;
25365;SDS011;13315;48.274;-1.900;2023-12-22T10:18:30;14.65;;;4.25;;
25365;SDS011;13315;48.274;-1.900;2023-12-22T10:20:56;5.85;;;3.13;;
25365;SDS011;13315;48.274;-1.900;2023-12-22T10:23:22;7.15;;;4.70;;
25365;SDS011;13315;48.274;-1.900;2023-12-22T10:25:49;3.85;;;3.58;;
25365;SDS011;13315;48.274;-1.900;2023-12-22T10:28:16;11.23;;;3.28;;
25365;SDS011;13315;48.274;-1.900;2023-12-22T10:30:46;10.73;;;4.15;;
25365;SDS011;13315;48.274;-1.900;2023-12-22T10:33:14;7.03;;;2.87;;
25365;SDS011;13315;48.274;-1.900;2023-12-22T10:35:41;6.40;;;3.15;;
25365;SDS011;13315;48.274;-1.900;2023-12-22T10:38:08;2.72;;;2.53;;
25365;SDS011;13315;48.274;-1.900;2023-12-22T10:40:36;2.92;;;2.72;;
25365;SDS011;13315;48.274;-1.900;2023-12-22T10:43:02;4.43;;;2.72;;
25365;SDS011;13315;48.274;-1.900;2023-12-22T10:45:30;4.85;;;2.50;;
25365;SDS011;13315;48.274;-1.900;2023-12-22T10:47:57;2.15;;;1.80;;
25365;SDS011;13315;48.274;-1.900;2023-12-22T10:50:24;12.70;;;2.20;;
25365;SDS011;13315;48.274;-1.900;2023-12-22T10:52:51;4.75;;;2.97;;
25365;SDS011;13315;48.274;-1.900;2023-12-22T10:55:17;3.53;;;2.25;;
25365;SDS011;13315;48.274;-1.900;2023-12-22T10:57:45;12.82;;;2.70;;
25365;SDS011;13315;48.274;-1.900;2023-12-22T11:00:11;4.93;;;2.97;;
25365;SDS011;13315;48.274;-1.900;2023-12-22T11:02:37;4.95;;;2.63;;
25365;SDS011;13315;48.274;-1.900;2023-12-22T11:05:07;3.05;;;2.85;;
25365;SDS011;13315;48.274;-1.900;2023-12-22T11:07:35;4.00;;;1.90;;
25365;SDS011;13315;48.274;-1.900;2023-12-22T11:10:03;3.05;;;2.40;;
25365;SDS011;13315;48.274;-1.900;2023-12-22T11:12:37;3.03;;;2.83;;
25365;SDS011;13315;48.274;-1.900;2023-12-22T11:15:04;1.83;;;1.75;;
25365;SDS011;13315;48.274;-1.900;2023-12-22T11:17:32;3.47;;;2.38;;
25365;SDS011;13315;48.274;-1.900;2023-12-22T11:20:00;3.00;;;2.80;;
25365;SDS011;13315;48.274;-1.900;2023-12-22T11:22:27;2.15;;;2.05;;
25365;SDS011;13315;48.274;-1.900;2023-12-22T11:24:54;10.40;;;2.95;;
25365;SDS011;13315;48.274;-1.900;2023-12-22T11:27:22;4.30;;;3.30;;
25365;SDS011;13315;48.274;-1.900;2023-12-22T11:29:49;13.38;;;2.88;;
25365;SDS011;13315;48.274;-1.900;2023-12-22T11:32:16;3.03;;;2.22;;
25365;SDS011;13315;48.274;-1.900;2023-12-22T11:34:43;6.28;;;2.33;;
25365;SDS011;13315;48.274;-1.900;2023-12-22T11:37:12;9.52;;;3.15;;
25365;SDS011;13315;48.274;-1.900;2023-12-22T11:39:44;16.30;;;3.28;;
25365;SDS011;13315;48.274;-1.900;2023-12-22T11:42:23;2.50;;;2.40;;
25365;SDS011;13315;48.274;-1.900;2023-12-22T11:44:50;7.35;;;3.55;;
25365;SDS011;13315;48.274;-1.900;2023-12-22T11:47:16;2.00;;;1.90;;
25365;SDS011;13315;48.274;-1.900;2023-12-22T11:49:42;2.67;;;2.53;;
25365;SDS011;13315;48.274;-1.900;2023-12-22T11:52:14;3.10;;;2.92;;
25365;SDS011;13315;48.274;-1.900;2023-12-22T11:59:52;5.22;;;3.03;;
25365;SDS011;13315;48.274;-1.900;2023-12-22T12:02:18;5.32;;;2.20;;
25365;SDS011;13315;48.274;-1.900;2023-12-22T12:04:47;1.50;;;1.50;;
25365;SDS011;13315;48.274;-1.900;2023-12-22T12:09:58;2.53;;;1.80;;
25365;SDS011;13315;48.274;-1.900;2023-12-22T12:12:24;3.13;;;2.53;;
25365;SDS011;13315;48.274;-1.900;2023-12-22T12:14:50;5.13;;;1.30;;
25365;SDS011;13315;48.274;-1.900;2023-12-22T12:17:19;2.25;;;1.40;;
25365;SDS011;13315;48.274;-1.900;2023-12-22T12:19:45;8.63;;;2.20;;
25365;SDS011;13315;48.274;-1.900;2023-12-22T12:22:13;2.50;;;2.40;;
25365;SDS011;13315;48.274;-1.900;2023-12-22T12:24:40;11.07;;;2.65;;
25365;SDS011;13315;48.274;-1.900;2023-12-22T12:27:07;3.28;;;2.70;;
25365;SDS011;13315;48.274;-1.900;2023-12-22T12:29:33;2.75;;;2.30;;
25365;SDS011;13315;48.274;-1.900;2023-12-22T12:32:03;9.43;;;2.15;;
25365;SDS011;13315;48.274;-1.900;2023-12-22T12:34:30;1.75;;;1.65;;
25365;SDS011;13315;48.274;-1.900;2023-12-22T12:36:56;8.02;;;3.55;;
25365;SDS011;13315;48.274;-1.900;2023-12-22T12:39:22;2.67;;;2.47;;
25365;SDS011;13315;48.274;-1.900;2023-12-22T12:41:53;4.40;;;2.90;;
25365;SDS011;13315;48.274;-1.900;2023-12-22T12:44:22;2.03;;;1.92;;
25365;SDS011;13315;48.274;-1.900;2023-12-22T12:46:49;1.80;;;1.70;;
25365;SDS011;13315;48.274;-1.900;2023-12-22T12:49:15;10.15;;;1.98;;
25365;SDS011;13315;48.274;-1.900;2023-12-22T12:51:42;4.00;;;2.60;;
25365;SDS011;13315;48.274;-1.900;2023-12-22T12:54:09;6.30;;;2.55;;
25365;SDS011;13315;48.274;-1.900;2023-12-22T12:59:11;8.27;;;4.40;;
25365;SDS011;13315;48.274;-1.900;2023-12-22T13:01:38;10.00;;;3.17;;
25365;SDS011;13315;48.274;-1.900;2023-12-22T13:04:04;1.90;;;1.85;;
25365;SDS011;13315;48.274;-1.900;2023-12-22T13:06:31;9.25;;;3.08;;
25365;SDS011;13315;48.274;-1.900;2023-12-22T13:08:57;4.72;;;3.25;;
25365;SDS011;13315;48.274;-1.900;2023-12-22T13:11:24;2.22;;;2.13;;
25365;SDS011;13315;48.274;-1.900;2023-12-22T13:13:50;1.73;;;1.73;;
25365;SDS011;13315;48.274;-1.900;2023-12-22T13:16:20;4.80;;;3.75;;
25365;SDS011;13315;48.274;-1.900;2023-12-22T13:18:47;7.53;;;3.30;;
25365;SDS011;13315;48.274;-1.900;2023-12-22T13:21:13;4.30;;;2.95;;
25365;SDS011;13315;48.274;-1.900;2023-12-22T13:23:40;2.22;;;2.13;;
25365;SDS011;13315;48.274;-1.900;2023-12-22T13:26:06;3.80;;;3.13;;
25365;SDS011;13315;48.274;-1.900;2023-12-22T13:28:32;2.83;;;2.63;;
25365;SDS011;13315;48.274;-1.900;2023-12-22T13:30:58;2.50;;;2.40;;
25365;SDS011;13315;48.274;-1.900;2023-12-22T13:33:24;2.33;;;2.22;;
25365;SDS011;13315;48.274;-1.900;2023-12-22T13:35:56;2.83;;;2.63;;
25365;SDS011;13315;48.274;-1.900;2023-12-22T13:38:22;2.40;;;2.30;;
25365;SDS011;13315;48.274;-1.900;2023-12-22T13:40:49;5.00;;;2.45;;
25365;SDS011;13315;48.274;-1.900;2023-12-22T13:43:15;8.75;;;3.03;;
25365;SDS011;13315;48.274;-1.900;2023-12-22T13:45:41;2.40;;;2.30;;
25365;SDS011;13315;48.274;-1.900;2023-12-22T13:48:07;3.63;;;1.80;;
25365;SDS011;13315;48.274;-1.900;2023-12-22T13:50:34;2.60;;;2.47;;
25365;SDS011;13315;48.274;-1.900;2023-12-22T13:53:10;1.95;;;1.92;;
25365;SDS011;13315;48.274;-1.900;2023-12-22T13:55:37;2.88;;;2.50;;
25365;SDS011;13315;48.274;-1.900;2023-12-22T13:58:04;1.75;;;1.65;;
25365;SDS011;13315;48.274;-1.900;2023-12-22T14:00:30;3.00;;;2.05;;
25365;SDS011;13315;48.274;-1.900;2023-12-22T14:02:56;13.73;;;2.85;;
25365;SDS011;13315;48.274;-1.900;2023-12-22T14:05:23;2.08;;;1.98;;
25365;SDS011;13315;48.274;-1.900;2023-12-22T14:07:49;1.95;;;1.65;;
25365;SDS011;13315;48.274;-1.900;2023-12-22T14:10:15;5.25;;;3.30;;
25365;SDS011;13315;48.274;-1.900;2023-12-22T14:12:41;2.25;;;2.15;;
25365;SDS011;13315;48.274;-1.900;2023-12-22T14:15:08;6.25;;;2.25;;
25365;SDS011;13315;48.274;-1.900;2023-12-22T14:17:35;1.77;;;1.67;;
25365;SDS011;13315;48.274;-1.900;2023-12-22T14:20:01;1.65;;;1.58;;
25365;SDS011;13315;48.274;-1.900;2023-12-22T14:22:27;1.40;;;1.40;;
25365;SDS011;13315;48.274;-1.900;2023-12-22T14:24:53;5.25;;;2.33;;
25365;SDS011;13315;48.274;-1.900;2023-12-22T14:27:20;2.42;;;1.92;;
25365;SDS011;13315;48.274;-1.900;2023-12-22T14:29:48;2.03;;;1.92;;
25365;SDS011;13315;48.274;-1.900;2023-12-22T14:32:14;2.13;;;2.03;;
25365;SDS011;13315;48.274;-1.900;2023-12-22T14:34:43;1.88;;;1.77;;
25365;SDS011;13315;48.274;-1.900;2023-12-22T14:37:10;1.48;;;1.48;;
25365;SDS011;13315;48.274;-1.900;2023-12-22T14:39:36;1.55;;;1.55;;
25365;SDS011;13315;48.274;-1.900;2023-12-22T14:42:02;2.50;;;2.40;;
25365;SDS011;13315;48.274;-1.900;2023-12-22T14:44:28;2.35;;;2.25;;
25365;SDS011;13315;48.274;-1.900;2023-12-22T14:46:55;1.77;;;1.67;;